Stolt Shearwater — ZCRD9 — position and weather

sailwx.info

Track history (hours):
 
Tides and Currents Weather Stations Pressure Air Temp Water Temp Dewpoint Dewpoint Depression Visibility Wind Speed Wind Dir Waves Ship Positions

Stolt Shearwater

Last reported at 2016-Feb-05 16:27 UTC. Time now 2016-Feb-05 22:21 UTC.
Position N 51°43' E 002°34'.

Length 96 m; draft 6.1 m.

Type: Ship (hazmat cat B). MMSI: 319402000.

Date/timePositionNaut miles runAvg speedWind from/ knotsBaromVisibWave heightAir tempDewpointWater temp
2016-Feb-05 16:27N 51°43' E 002°34'8 9.2
2016-Feb-05 15:33N 51°37' E 002°26'8 8.2
2016-Feb-05 14:33N 51°30' E 002°17'8 8.5
2016-Feb-05 13:33N 51°23' E 002°11'9 9.0
2016-Feb-05 12:34N 51°15' E 002°04'10 9.5
2016-Feb-05 11:34N 51°09' E 001°52'1010.4
2016-Feb-05 10:34N 51°03' E 001°39'1110.7
2016-Feb-05 09:33N 50°55' E 001°28'  
2016-Feb-02 22:28N 53°24' W 004°04'8 8.7
2016-Feb-02 21:33N 53°24' W 003°50'9 8.7
2016-Feb-02 20:33N 53°25' W 003°36'8 8.4
2016-Feb-02 19:33N 53°28' W 003°23'8 8.3
2016-Feb-02 18:33N 53°32' W 003°10'9 9.1
2016-Feb-02 17:33N 53°25' W 003°00'6 5.3
2016-Feb-02 16:28N 53°19' W 002°57'0 0.0
2016-Feb-02 14:25N 53°19' W 002°57'0 0.0
2016-Feb-02 13:31N 53°19' W 002°57'0 0.0
2016-Feb-02 12:31N 53°19' W 002°57'0 0.0
2016-Feb-02 11:31N 53°19' W 002°57'0 0.0
2016-Feb-02 09:31N 53°19' W 002°57'0 0.0
2016-Feb-02 05:31N 53°19' W 002°57'0 0.0
2016-Feb-02 01:25N 53°19' W 002°57'0 0.0
2016-Feb-02 00:25N 53°19' W 002°57'0 0.0
2016-Feb-01 13:31N 53°19' W 002°57'0 0.0
2016-Feb-01 12:31N 53°19' W 002°57'0 0.0
2016-Feb-01 10:25N 53°19' W 002°57'0 0.0
2016-Feb-01 09:31N 53°19' W 002°57'0 0.0
2016-Feb-01 07:19N 53°19' W 002°57'0 0.0
2016-Feb-01 06:33N 53°19' W 002°57'0 0.1
2016-Feb-01 05:33N 53°19' W 002°57'1 0.7
2016-Feb-01 04:33N 53°20' W 002°57'7 6.9
2016-Feb-01 03:33N 53°26' W 003°01'1010.4
2016-Feb-01 02:33N 53°31' W 003°17'1312.8
2016-Feb-01 01:33N 53°31' W 003°38'1313.0
2016-Feb-01 00:33N 53°28' W 003°60'  
2016-Jan-29 13:33N 49°36' W 000°23'10 9.8
2016-Jan-29 12:33N 49°31' W 000°10'10 9.9
2016-Jan-29 11:33N 49°29' E 000°05'4 3.8
2016-Jan-29 10:33N 49°29' E 000°11'1 0.5
2016-Jan-29 09:33N 49°29' E 000°10'0 0.0
2016-Jan-29 08:33N 49°29' E 000°10'0 0.0
2016-Jan-29 07:33N 49°29' E 000°10'0 0.0
2016-Jan-29 06:33N 49°29' E 000°10'0 0.0
2016-Jan-29 05:33N 49°29' E 000°10'0 0.0
2016-Jan-29 04:33N 49°29' E 000°10'0 0.0
2016-Jan-29 03:33N 49°29' E 000°10'0 0.0
2016-Jan-29 02:33N 49°29' E 000°10'0 0.0
2016-Jan-29 01:33N 49°29' E 000°10'0 0.0
2016-Jan-29 00:33N 49°29' E 000°10'0 0.0
2016-Jan-28 23:33N 49°29' E 000°10'0 0.0
2016-Jan-28 22:33N 49°29' E 000°10'0 0.0
2016-Jan-28 21:33N 49°29' E 000°10'0 0.0
2016-Jan-28 20:33N 49°29' E 000°10'1 0.8
2016-Jan-28 19:34N 49°29' E 000°10'5 4.5
2016-Jan-28 18:33N 49°29' E 000°04'10 9.6
2016-Jan-28 17:33N 49°33' W 000°10'8 8.0
2016-Jan-28 16:33N 49°41' W 000°10'67 9.6
2016-Jan-28 09:33N 50°38' E 000°44'1211.8
2016-Jan-28 08:32N 50°45' E 000°60'1212.6
2016-Jan-28 07:33N 50°53' E 001°15'1212.4
2016-Jan-28 06:34N 51°02' E 001°28'1110.9
2016-Jan-28 05:34N 51°09' E 001°40'10 9.8
2016-Jan-28 04:34N 51°17' E 001°50'9 9.1
2016-Jan-28 03:33N 51°24' E 001°59'9 8.9
2016-Jan-28 02:33N 51°22' E 002°13'9 8.7
2016-Jan-28 01:31N 51°22' E 002°27'10 9.8
2016-Jan-28 00:31N 51°22' E 002°43'9 9.9
2016-Jan-27 23:34N 51°23' E 002°58'1111.3
2016-Jan-27 22:33N 51°25' E 003°16'1111.3
2016-Jan-27 21:34N 51°26' E 003°34'10 9.8
2016-Jan-27 20:33N 51°21' E 003°48'9 9.2
2016-Jan-27 19:33N 51°24' E 004°02'12 6.1
2016-Jan-27 17:33N 51°18' E 004°20'3 2.9
2016-Jan-27 16:31N 51°15' E 004°22'0 0.0
2016-Jan-27 15:31N 51°15' E 004°22'0 0.0
2016-Jan-27 14:31N 51°15' E 004°22'0 0.0
2016-Jan-27 13:31N 51°15' E 004°22'0 0.0
2016-Jan-27 12:31N 51°15' E 004°22'0 0.0
2016-Jan-27 11:31N 51°15' E 004°22'0 0.0
2016-Jan-27 10:31N 51°15' E 004°22'0 0.0
2016-Jan-27 09:31N 51°15' E 004°22'0 0.0
2016-Jan-27 08:31N 51°15' E 004°22'0 0.0
2016-Jan-27 07:31N 51°15' E 004°22'0 0.0
2016-Jan-27 06:31N 51°15' E 004°22'0 0.0
2016-Jan-27 05:31N 51°15' E 004°22'0 0.0
2016-Jan-27 04:31N 51°15' E 004°22'0 0.0
2016-Jan-27 03:31N 51°15' E 004°22'0 0.0
2016-Jan-27 02:31N 51°15' E 004°22'0 0.0
2016-Jan-27 01:31N 51°15' E 004°22'0 0.0
2016-Jan-27 00:31N 51°15' E 004°22'0 0.0
2016-Jan-26 23:28N 51°15' E 004°22'0 0.0
2016-Jan-26 22:31N 51°15' E 004°22'0 0.0
2016-Jan-26 21:31N 51°15' E 004°22'0 0.0
2016-Jan-26 20:31N 51°15' E 004°22'0 0.0
2016-Jan-26 19:31N 51°15' E 004°22'0 0.0
2016-Jan-26 18:31N 51°15' E 004°22'0 0.0
2016-Jan-26 17:31N 51°15' E 004°22'0 0.0
2016-Jan-26 16:31N 51°15' E 004°22'  
Track history (hours):
 
Tides and Currents Weather Stations Pressure Air Temp Water Temp Dewpoint Dewpoint Depression Visibility Wind Speed Wind Dir Waves Ship Positions

Stolt Shearwater

Last reported at 2016-Feb-05 16:27 UTC. Time now 2016-Feb-05 22:21 UTC.
Position N 51°43' E 002°34'.

Length 96 m; draft 6.1 m.

Type: Ship (hazmat cat B). MMSI: 319402000.

Date/timePositionNaut miles runAvg speedWind from/ knotsBaromVisibWave heightAir tempDewpointWater temp
2016-Feb-05 16:27N 51°43' E 002°34'8 9.2
2016-Feb-05 15:33N 51°37' E 002°26'8 8.2
2016-Feb-05 14:33N 51°30' E 002°17'8 8.5
2016-Feb-05 13:33N 51°23' E 002°11'9 9.0
2016-Feb-05 12:34N 51°15' E 002°04'10 9.5
2016-Feb-05 11:34N 51°09' E 001°52'1010.4
2016-Feb-05 10:34N 51°03' E 001°39'1110.7
2016-Feb-05 09:33N 50°55' E 001°28'  
2016-Feb-02 22:28N 53°24' W 004°04'8 8.7
2016-Feb-02 21:33N 53°24' W 003°50'9 8.7
2016-Feb-02 20:33N 53°25' W 003°36'8 8.4
2016-Feb-02 19:33N 53°28' W 003°23'8 8.3
2016-Feb-02 18:33N 53°32' W 003°10'9 9.1
2016-Feb-02 17:33N 53°25' W 003°00'6 5.3
2016-Feb-02 16:28N 53°19' W 002°57'0 0.0
2016-Feb-02 14:25N 53°19' W 002°57'0 0.0
2016-Feb-02 13:31N 53°19' W 002°57'0 0.0
2016-Feb-02 12:31N 53°19' W 002°57'0 0.0
2016-Feb-02 11:31N 53°19' W 002°57'0 0.0
2016-Feb-02 09:31N 53°19' W 002°57'0 0.0
2016-Feb-02 05:31N 53°19' W 002°57'0 0.0
2016-Feb-02 01:25N 53°19' W 002°57'0 0.0
2016-Feb-02 00:25N 53°19' W 002°57'0 0.0
2016-Feb-01 13:31N 53°19' W 002°57'0 0.0
2016-Feb-01 12:31N 53°19' W 002°57'0 0.0
2016-Feb-01 10:25N 53°19' W 002°57'0 0.0
2016-Feb-01 09:31N 53°19' W 002°57'0 0.0
2016-Feb-01 07:19N 53°19' W 002°57'0 0.0
2016-Feb-01 06:33N 53°19' W 002°57'0 0.1
2016-Feb-01 05:33N 53°19' W 002°57'1 0.7
2016-Feb-01 04:33N 53°20' W 002°57'7 6.9
2016-Feb-01 03:33N 53°26' W 003°01'1010.4
2016-Feb-01 02:33N 53°31' W 003°17'1312.8
2016-Feb-01 01:33N 53°31' W 003°38'1313.0
2016-Feb-01 00:33N 53°28' W 003°60'  
2016-Jan-29 13:33N 49°36' W 000°23'10 9.8
2016-Jan-29 12:33N 49°31' W 000°10'10 9.9
2016-Jan-29 11:33N 49°29' E 000°05'4 3.8
2016-Jan-29 10:33N 49°29' E 000°11'1 0.5
2016-Jan-29 09:33N 49°29' E 000°10'0 0.0
2016-Jan-29 08:33N 49°29' E 000°10'0 0.0
2016-Jan-29 07:33N 49°29' E 000°10'0 0.0
2016-Jan-29 06:33N 49°29' E 000°10'0 0.0
2016-Jan-29 05:33N 49°29' E 000°10'0 0.0
2016-Jan-29 04:33N 49°29' E 000°10'0 0.0
2016-Jan-29 03:33N 49°29' E 000°10'0 0.0
2016-Jan-29 02:33N 49°29' E 000°10'0 0.0
2016-Jan-29 01:33N 49°29' E 000°10'0 0.0
2016-Jan-29 00:33N 49°29' E 000°10'0 0.0
2016-Jan-28 23:33N 49°29' E 000°10'0 0.0
2016-Jan-28 22:33N 49°29' E 000°10'0 0.0
2016-Jan-28 21:33N 49°29' E 000°10'0 0.0
2016-Jan-28 20:33N 49°29' E 000°10'1 0.8
2016-Jan-28 19:34N 49°29' E 000°10'5 4.5
2016-Jan-28 18:33N 49°29' E 000°04'10 9.6
2016-Jan-28 17:33N 49°33' W 000°10'8 8.0
2016-Jan-28 16:33N 49°41' W 000°10'67 9.6
2016-Jan-28 09:33N 50°38' E 000°44'1211.8
2016-Jan-28 08:32N 50°45' E 000°60'1212.6
2016-Jan-28 07:33N 50°53' E 001°15'1212.4
2016-Jan-28 06:34N 51°02' E 001°28'1110.9
2016-Jan-28 05:34N 51°09' E 001°40'10 9.8
2016-Jan-28 04:34N 51°17' E 001°50'9 9.1
2016-Jan-28 03:33N 51°24' E 001°59'9 8.9
2016-Jan-28 02:33N 51°22' E 002°13'9 8.7
2016-Jan-28 01:31N 51°22' E 002°27'10 9.8
2016-Jan-28 00:31N 51°22' E 002°43'9 9.9
2016-Jan-27 23:34N 51°23' E 002°58'1111.3
2016-Jan-27 22:33N 51°25' E 003°16'1111.3
2016-Jan-27 21:34N 51°26' E 003°34'10 9.8
2016-Jan-27 20:33N 51°21' E 003°48'9 9.2
2016-Jan-27 19:33N 51°24' E 004°02'12 6.1
2016-Jan-27 17:33N 51°18' E 004°20'3 2.9
2016-Jan-27 16:31N 51°15' E 004°22'0 0.0
2016-Jan-27 15:31N 51°15' E 004°22'0 0.0
2016-Jan-27 14:31N 51°15' E 004°22'0 0.0
2016-Jan-27 13:31N 51°15' E 004°22'0 0.0
2016-Jan-27 12:31N 51°15' E 004°22'0 0.0
2016-Jan-27 11:31N 51°15' E 004°22'0 0.0
2016-Jan-27 10:31N 51°15' E 004°22'0 0.0
2016-Jan-27 09:31N 51°15' E 004°22'0 0.0
2016-Jan-27 08:31N 51°15' E 004°22'0 0.0
2016-Jan-27 07:31N 51°15' E 004°22'0 0.0
2016-Jan-27 06:31N 51°15' E 004°22'0 0.0
2016-Jan-27 05:31N 51°15' E 004°22'0 0.0
2016-Jan-27 04:31N 51°15' E 004°22'0 0.0
2016-Jan-27 03:31N 51°15' E 004°22'0 0.0
2016-Jan-27 02:31N 51°15' E 004°22'0 0.0
2016-Jan-27 01:31N 51°15' E 004°22'0 0.0
2016-Jan-27 00:31N 51°15' E 004°22'0 0.0
2016-Jan-26 23:28N 51°15' E 004°22'0 0.0
2016-Jan-26 22:31N 51°15' E 004°22'0 0.0
2016-Jan-26 21:31N 51°15' E 004°22'0 0.0
2016-Jan-26 20:31N 51°15' E 004°22'0 0.0
2016-Jan-26 19:31N 51°15' E 004°22'0 0.0
2016-Jan-26 18:31N 51°15' E 004°22'0 0.0
2016-Jan-26 17:31N 51°15' E 004°22'0 0.0
2016-Jan-26 16:31N 51°15' E 004°22'  

Dump ship's entire track history